Time;durP1;ratioP1;P1;durP2;ratioP2;P2;SDS_P1;SDS_P2;PMS_P1;PMS_P2;Temp;Humidity;BMP_temperature;BMP_pressure;BME280_temperature;BME280_humidity;BME280_pressure;Samples;Min_cycle;Max_cycle;Signal;HPM_P1;HPM_P2
2022/12/09 00:01:49;;;;;;;26.67;9.80;;;;;;;;;;6253268;23;20436;-90
2022/12/09 00:04:21;;;;;;;24.52;9.30;;;;;;;;;;6250688;23;20024;-89
2022/12/09 00:06:49;;;;;;;21.75;8.07;;;;;;;;;;6214721;23;20020;-90
2022/12/09 00:09:17;;;;;;;20.63;9.18;;;;;;;;;;6226108;23;20022;-89
2022/12/09 00:11:51;;;;;;;21.80;8.45;;;;;;;;;;6216429;23;20020;-90
2022/12/09 00:14:19;;;;;;;18.52;6.72;;;;;;;;;;6252827;23;20444;-90
2022/12/09 00:16:49;;;;;;;17.23;7.65;;;;;;;;;;6258002;23;20008;-91
2022/12/09 00:19:25;;;;;;;20.70;7.50;;;;;;;;;;6193901;23;20042;-91
2022/12/09 00:21:57;;;;;;;17.73;7.80;;;;;;;;;;6219411;23;20024;-90
2022/12/09 00:24:25;;;;;;;15.32;7.00;;;;;;;;;;6255602;23;20020;-90
2022/12/09 00:26:53;;;;;;;17.95;7.68;;;;;;;;;;6255067;23;20014;-90
2022/12/09 00:29:21;;;;;;;21.85;7.32;;;;;;;;;;6228623;23;20099;-90
2022/12/09 00:31:49;;;;;;;21.88;8.10;;;;;;;;;;6189631;23;20016;-89
2022/12/09 00:34:17;;;;;;;20.67;7.80;;;;;;;;;;6225198;23;20511;-90
2022/12/09 00:37:09;;;;;;;17.30;7.13;;;;;;;;;;6225848;23;20012;-90
2022/12/09 00:40:03;;;;;;;17.85;6.60;;;;;;;;;;6253404;23;20016;-90
2022/12/09 00:42:31;;;;;;;16.30;6.50;;;;;;;;;;6226473;23;20395;-91
2022/12/09 00:44:59;;;;;;;19.30;6.57;;;;;;;;;;6167603;23;20027;-90
2022/12/09 00:47:53;;;;;;;18.73;7.18;;;;;;;;;;6252099;23;20019;-90
2022/12/09 00:50:47;;;;;;;17.63;6.45;;;;;;;;;;6253223;23;20103;-90
2022/12/09 00:53:15;;;;;;;18.35;7.13;;;;;;;;;;6226073;23;20395;-90
2022/12/09 00:55:44;;;;;;;19.42;7.05;;;;;;;;;;6225483;23;20020;-89
2022/12/09 00:58:13;;;;;;;16.42;6.68;;;;;;;;;;6252341;23;20036;-90
2022/12/09 01:00:41;;;;;;;17.60;7.15;;;;;;;;;;6201383;23;20027;-90
2022/12/09 01:03:33;;;;;;;15.80;6.03;;;;;;;;;;6223406;23;20031;-90
2022/12/09 01:06:07;;;;;;;18.77;7.20;;;;;;;;;;6244714;23;20115;-90
2022/12/09 01:08:35;;;;;;;17.27;6.88;;;;;;;;;;6201363;23;20066;-90
2022/12/09 01:11:31;;;;;;;17.95;6.78;;;;;;;;;;6218203;23;20415;-91
2022/12/09 01:14:23;;;;;;;17.92;6.63;;;;;;;;;;6256997;23;20062;-91
2022/12/09 01:16:51;;;;;;;26.70;7.40;;;;;;;;;;6254615;23;20473;-90
2022/12/09 01:19:19;;;;;;;18.17;7.05;;;;;;;;;;6226530;23;20028;-91
2022/12/09 01:21:47;;;;;;;19.70;7.72;;;;;;;;;;6251789;23;20024;-89
2022/12/09 01:24:15;;;;;;;19.45;7.38;;;;;;;;;;6225992;23;20104;-90
2022/12/09 01:26:43;;;;;;;19.38;7.50;;;;;;;;;;6199862;23;20030;-90
2022/12/09 01:29:35;;;;;;;21.10;8.68;;;;;;;;;;6230462;23;20032;-90
2022/12/09 01:32:51;;;;;;;18.13;7.22;;;;;;;;;;6214552;23;20019;-88
2022/12/09 01:35:21;;;;;;;17.90;7.68;;;;;;;;;;6249814;23;20022;-90
2022/12/09 01:37:49;;;;;;;18.85;7.65;;;;;;;;;;6251482;23;20376;-90
2022/12/09 01:40:17;;;;;;;18.38;7.65;;;;;;;;;;6165942;23;20023;-90
2022/12/09 01:42:51;;;;;;;22.48;8.48;;;;;;;;;;6224388;23;20096;-89
2022/12/09 01:45:19;;;;;;;21.52;8.57;;;;;;;;;;6251910;23;20020;-89
2022/12/09 01:48:04;;;;;;;24.10;8.23;;;;;;;;;;6229109;23;20016;-90
2022/12/09 01:51:01;;;;;;;23.98;8.73;;;;;;;;;;6258112;23;20027;-90
2022/12/09 01:53:36;;;;;;;20.35;7.88;;;;;;;;;;6257494;23;20023;-90
2022/12/09 01:56:16;;;;;;;21.35;9.32;;;;;;;;;;6255947;23;20020;-90
2022/12/09 01:58:45;;;;;;;22.25;8.48;;;;;;;;;;6206323;23;20069;-89
2022/12/09 02:01:14;;;;;;;20.98;8.75;;;;;;;;;;6255590;23;20026;-90
2022/12/09 02:03:43;;;;;;;30.48;10.23;;;;;;;;;;6231159;23;20024;-90
2022/12/09 02:06:11;;;;;;;23.85;9.52;;;;;;;;;;6220795;23;20389;-90
2022/12/09 02:08:39;;;;;;;25.17;9.65;;;;;;;;;;6231743;23;20019;-90
2022/12/09 02:11:33;;;;;;;28.10;10.05;;;;;;;;;;6230987;23;20020;-90
2022/12/09 02:15:03;;;;;;;25.10;9.85;;;;;;;;;;6257908;23;20016;-89
2022/12/09 02:17:40;;;;;;;25.02;9.77;;;;;;;;;;6218134;23;20097;-90
2022/12/09 02:20:37;;;;;;;25.58;9.30;;;;;;;;;;6231730;23;20016;-90
2022/12/09 02:23:22;;;;;;;27.15;9.85;;;;;;;;;;6231588;23;20448;-90
2022/12/09 02:25:59;;;;;;;25.23;9.32;;;;;;;;;;6231293;23;20039;-90
2022/12/09 02:28:39;;;;;;;26.45;9.55;;;;;;;;;;6231758;23;20012;-90
2022/12/09 02:31:25;;;;;;;28.58;10.23;;;;;;;;;;6207294;23;20020;-90
2022/12/09 02:34:09;;;;;;;26.60;10.48;;;;;;;;;;6257407;23;20070;-91
2022/12/09 02:37:25;;;;;;;25.73;9.82;;;;;;;;;;6231159;23;20087;-89
2022/12/09 02:40:04;;;;;;;27.92;9.55;;;;;;;;;;6231534;23;20016;-90
2022/12/09 02:42:40;;;;;;;31.35;10.25;;;;;;;;;;6234726;23;20347;-91
2022/12/09 02:45:15;;;;;;;26.60;9.45;;;;;;;;;;6258766;23;20020;-90
2022/12/09 02:47:50;;;;;;;28.33;9.50;;;;;;;;;;6209404;23;20016;-90
2022/12/09 02:50:26;;;;;;;28.35;10.13;;;;;;;;;;6232935;23;20062;-90
2022/12/09 02:52:55;;;;;;;27.95;10.57;;;;;;;;;;6233530;23;20480;-90
2022/12/09 02:55:31;;;;;;;30.83;10.40;;;;;;;;;;6234168;23;20012;-90
2022/12/09 02:58:00;;;;;;;28.58;9.88;;;;;;;;;;6259784;23;20008;-90
2022/12/09 03:00:31;;;;;;;28.95;10.73;;;;;;;;;;6233379;23;20027;-90
2022/12/09 03:03:02;;;;;;;30.02;10.25;;;;;;;;;;6258913;23;20016;-90
2022/12/09 03:05:44;;;;;;;28.48;10.23;;;;;;;;;;6258830;22;20016;-90
2022/12/09 03:08:31;;;;;;;35.13;11.18;;;;;;;;;;6232535;23;20062;-90
2022/12/09 03:11:03;;;;;;;27.95;10.02;;;;;;;;;;6232933;23;20015;-90
2022/12/09 03:14:10;;;;;;;32.35;10.40;;;;;;;;;;6232996;23;20420;-90
2022/12/09 03:16:45;;;;;;;31.48;10.05;;;;;;;;;;6259131;23;20027;-90
2022/12/09 03:19:53;;;;;;;28.63;9.82;;;;;;;;;;6196765;23;20436;-90
2022/12/09 03:22:33;;;;;;;24.17;10.02;;;;;;;;;;6257773;23;20024;-90
2022/12/09 03:25:38;;;;;;;29.70;10.15;;;;;;;;;;6259535;23;20038;-90
2022/12/09 03:28:35;;;;;;;30.60;10.48;;;;;;;;;;6249366;23;20016;-90
2022/12/09 03:31:17;;;;;;;29.70;10.30;;;;;;;;;;6221648;23;20024;-91
2022/12/09 03:33:51;;;;;;;29.15;9.98;;;;;;;;;;6258836;23;20086;-90
2022/12/09 03:36:25;;;;;;;29.10;10.07;;;;;;;;;;6223803;23;20016;-90
2022/12/09 03:38:54;;;;;;;26.77;9.50;;;;;;;;;;6259228;23;20008;-90
2022/12/09 03:41:22;;;;;;;33.63;10.77;;;;;;;;;;6258802;23;20070;-90
2022/12/09 03:44:43;;;;;;;27.33;10.18;;;;;;;;;;6237732;23;20144;-90
2022/12/09 03:47:17;;;;;;;28.75;9.95;;;;;;;;;;6233468;23;20016;-90
2022/12/09 03:49:45;;;;;;;28.77;10.15;;;;;;;;;;6258312;23;20031;-90
2022/12/09 03:52:28;;;;;;;29.02;10.85;;;;;;;;;;6259026;23;20032;-90
2022/12/09 03:55:00;;;;;;;21.58;8.93;;;;;;;;;;6196673;23;20046;-90
2022/12/09 03:57:29;;;;;;;28.25;10.85;;;;;;;;;;6231900;23;20082;-90
2022/12/09 04:00:04;;;;;;;28.23;9.05;;;;;;;;;;6232001;23;20247;-90
2022/12/09 04:02:41;;;;;;;22.80;9.25;;;;;;;;;;6256932;23;20016;-90
2022/12/09 04:05:09;;;;;;;29.13;10.02;;;;;;;;;;6257657;23;20467;-90
2022/12/09 04:08:03;;;;;;;26.73;10.75;;;;;;;;;;6258507;23;20091;-90
2022/12/09 04:10:31;;;;;;;25.85;9.57;;;;;;;;;;6258763;23;20020;-90
2022/12/09 04:12:59;;;;;;;27.20;10.27;;;;;;;;;;6258836;23;20504;-90
2022/12/09 04:15:53;;;;;;;24.73;9.45;;;;;;;;;;6202418;23;20047;-90
2022/12/09 04:18:45;;;;;;;23.67;9.18;;;;;;;;;;6231478;23;20004;-89
2022/12/09 04:21:13;;;;;;;23.10;9.70;;;;;;;;;;6258742;23;20277;-90
2022/12/09 04:23:41;;;;;;;21.70;8.52;;;;;;;;;;6258248;23;20020;-90
2022/12/09 04:26:19;;;;;;;21.30;8.23;;;;;;;;;;6221344;23;20023;-90
2022/12/09 04:28:47;;;;;;;20.08;8.68;;;;;;;;;;6231530;23;20016;-89
2022/12/09 04:31:39;;;;;;;20.50;8.23;;;;;;;;;;6231556;23;20014;-90
2022/12/09 04:34:58;;;;;;;24.38;9.90;;;;;;;;;;6258314;23;20103;-90
2022/12/09 04:37:25;;;;;;;26.35;9.77;;;;;;;;;;6231540;23;20083;-90
2022/12/09 04:39:53;;;;;;;22.92;8.75;;;;;;;;;;6231084;23;20027;-90
2022/12/09 04:42:27;;;;;;;23.90;9.70;;;;;;;;;;6220656;23;20047;-90
2022/12/09 04:45:21;;;;;;;27.02;9.05;;;;;;;;;;6257358;23;20024;-90
2022/12/09 04:47:49;;;;;;;22.48;9.02;;;;;;;;;;6231891;23;20062;-90
2022/12/09 04:50:17;;;;;;;23.55;8.85;;;;;;;;;;6232117;23;20039;-90
2022/12/09 04:52:45;;;;;;;23.73;9.52;;;;;;;;;;6231756;23;20086;-90
2022/12/09 04:55:37;;;;;;;27.27;10.40;;;;;;;;;;6259455;23;20087;-90
2022/12/09 04:58:05;;;;;;;22.45;9.35;;;;;;;;;;6231971;23;20096;-90
2022/12/09 05:01:07;;;;;;;23.50;8.90;;;;;;;;;;6258665;23;20016;-90
2022/12/09 05:03:35;;;;;;;26.63;9.38;;;;;;;;;;6254360;23;20086;-90
2022/12/09 05:06:04;;;;;;;22.27;9.23;;;;;;;;;;6258574;22;20047;-90
2022/12/09 05:08:37;;;;;;;28.92;10.05;;;;;;;;;;6222412;23;20186;-90
2022/12/09 05:11:13;;;;;;;26.90;9.25;;;;;;;;;;6258473;23;20352;-90
2022/12/09 05:14:05;;;;;;;22.50;8.95;;;;;;;;;;6231844;23;20031;-90
2022/12/09 05:16:33;;;;;;;24.15;9.45;;;;;;;;;;6258411;23;20016;-91
2022/12/09 05:19:01;;;;;;;27.25;9.43;;;;;;;;;;6257938;23;20095;-90
2022/12/09 05:21:29;;;;;;;27.75;10.60;;;;;;;;;;6232911;23;20032;-90
2022/12/09 05:23:57;;;;;;;32.72;9.32;;;;;;;;;;6232056;23;20119;-90
2022/12/09 05:26:25;;;;;;;25.30;9.73;;;;;;;;;;6257713;23;20016;-90
2022/12/09 05:29:19;;;;;;;26.88;9.52;;;;;;;;;;6238398;23;20322;-90
2022/12/09 05:32:15;;;;;;;24.35;9.35;;;;;;;;;;6237573;23;20023;-90
2022/12/09 05:34:43;;;;;;;26.55;9.88;;;;;;;;;;6196353;23;20058;-90
2022/12/09 05:37:15;;;;;;;23.40;9.70;;;;;;;;;;6207118;23;20016;-90
2022/12/09 05:39:43;;;;;;;27.98;10.40;;;;;;;;;;6232591;23;20530;-90
2022/12/09 05:45:14;;;;;;;23.40;9.38;;;;;;;;;;6256647;23;20017;-90
2022/12/09 05:47:43;;;;;;;25.35;10.45;;;;;;;;;;6257021;23;20023;-90
2022/12/09 05:50:11;;;;;;;25.05;10.30;;;;;;;;;;6221326;23;20043;-90
2022/12/09 05:53:03;;;;;;;27.52;10.38;;;;;;;;;;6258579;23;20032;-90
2022/12/09 05:55:57;;;;;;;29.67;10.70;;;;;;;;;;6222607;23;20035;-90
2022/12/09 05:58:25;;;;;;;24.80;9.98;;;;;;;;;;6232406;23;20069;-90
2022/12/09 06:00:55;;;;;;;33.67;11.32;;;;;;;;;;6257871;23;20441;-90
2022/12/09 06:03:23;;;;;;;24.30;10.48;;;;;;;;;;6232069;23;20040;-90
2022/12/09 06:05:51;;;;;;;31.23;12.05;;;;;;;;;;6251127;22;20028;-90
2022/12/09 06:08:19;;;;;;;25.77;10.45;;;;;;;;;;6222302;23;20012;-90
2022/12/09 06:11:19;;;;;;;30.45;10.48;;;;;;;;;;6222031;23;20070;-90
2022/12/09 06:13:48;;;;;;;24.30;9.63;;;;;;;;;;6258245;23;20085;-90
2022/12/09 06:16:19;;;;;;;30.23;11.75;;;;;;;;;;6231380;23;20020;-90
2022/12/09 06:18:53;;;;;;;25.20;8.98;;;;;;;;;;6257531;23;20016;-89
2022/12/09 06:21:47;;;;;;;27.40;10.73;;;;;;;;;;6201657;23;20577;-90
2022/12/09 06:24:15;;;;;;;24.95;9.63;;;;;;;;;;6233558;23;20026;-90
2022/12/09 06:26:43;;;;;;;25.40;10.40;;;;;;;;;;6260029;23;20016;-90
2022/12/09 06:29:11;;;;;;;26.02;11.15;;;;;;;;;;6260113;23;20019;-88
2022/12/09 06:31:39;;;;;;;22.92;10.32;;;;;;;;;;6229047;23;20043;-89
2022/12/09 06:34:07;;;;;;;27.60;10.68;;;;;;;;;;6258250;23;20020;-89
2022/12/09 06:36:41;;;;;;;25.88;9.88;;;;;;;;;;6257699;23;20027;-89
2022/12/09 06:39:09;;;;;;;29.55;11.30;;;;;;;;;;6260970;23;20023;-89
2022/12/09 06:42:03;;;;;;;26.48;11.60;;;;;;;;;;6261962;23;20015;-89
2022/12/09 06:44:31;;;;;;;26.80;10.77;;;;;;;;;;6237724;23;20016;-89
2022/12/09 06:47:08;;;;;;;27.58;11.18;;;;;;;;;;6213339;23;20027;-89
2022/12/09 06:49:38;;;;;;;27.25;11.32;;;;;;;;;;6236937;23;20032;-90
2022/12/09 06:52:11;;;;;;;31.77;12.38;;;;;;;;;;6262955;23;20016;-89
2022/12/09 06:54:41;;;;;;;30.27;12.02;;;;;;;;;;6237860;23;20012;-90
2022/12/09 06:57:11;;;;;;;32.35;12.20;;;;;;;;;;6262839;23;20410;-89
2022/12/09 06:59:39;;;;;;;32.60;13.23;;;;;;;;;;6237310;23;20032;-90
2022/12/09 07:02:09;;;;;;;34.33;11.52;;;;;;;;;;6237184;23;20020;-89
2022/12/09 07:04:37;;;;;;;30.80;11.77;;;;;;;;;;6263000;23;20135;-90
2022/12/09 07:07:11;;;;;;;27.60;11.50;;;;;;;;;;6263512;22;20016;-89
2022/12/09 07:09:39;;;;;;;28.88;11.77;;;;;;;;;;6236667;23;20008;-89
2022/12/09 07:12:31;;;;;;;31.77;11.77;;;;;;;;;;6262720;23;20011;-90
2022/12/09 07:15:23;;;;;;;32.17;12.27;;;;;;;;;;6241339;23;20008;-90
2022/12/09 07:17:55;;;;;;;27.35;11.27;;;;;;;;;;6222819;23;20036;-90
2022/12/09 07:20:23;;;;;;;31.45;11.77;;;;;;;;;;6234266;23;20026;-89
2022/12/09 07:22:51;;;;;;;28.85;11.68;;;;;;;;;;6210180;23;20031;-90
2022/12/09 07:25:19;;;;;;;34.55;13.18;;;;;;;;;;6234555;23;20016;-89
2022/12/09 07:27:47;;;;;;;27.50;10.50;;;;;;;;;;6198602;23;20027;-90
2022/12/09 07:30:15;;;;;;;29.60;11.50;;;;;;;;;;6233376;23;20020;-90
2022/12/09 07:32:47;;;;;;;30.45;11.88;;;;;;;;;;6169165;23;20127;-90
2022/12/09 07:35:15;;;;;;;31.73;11.70;;;;;;;;;;6232998;23;20020;-90
2022/12/09 07:37:49;;;;;;;30.67;11.77;;;;;;;;;;6260307;23;20066;-90
2022/12/09 07:40:17;;;;;;;29.52;11.63;;;;;;;;;;6196678;23;20020;-89
2022/12/09 07:42:49;;;;;;;29.20;11.80;;;;;;;;;;6218184;23;20379;-89
2022/12/09 07:45:29;;;;;;;33.05;11.60;;;;;;;;;;6225022;23;20018;-89
2022/12/09 07:47:57;;;;;;;29.83;10.95;;;;;;;;;;6201153;23;20019;-89
2022/12/09 07:50:25;;;;;;;27.45;10.82;;;;;;;;;;6190701;23;20088;-89
2022/12/09 07:52:59;;;;;;;27.10;10.88;;;;;;;;;;6229219;23;20429;-89
2022/12/09 07:55:32;;;;;;;28.50;11.30;;;;;;;;;;6254664;23;20031;-89
2022/12/09 07:58:25;;;;;;;32.22;11.75;;;;;;;;;;6252897;23;20016;-87
2022/12/09 08:00:53;;;;;;;29.17;11.50;;;;;;;;;;6253026;23;20016;-88
2022/12/09 08:03:25;;;;;;;24.38;10.05;;;;;;;;;;6226498;23;20035;-87
2022/12/09 08:05:53;;;;;;;29.10;11.00;;;;;;;;;;6192453;23;20027;-88
2022/12/09 08:08:21;;;;;;;31.88;10.93;;;;;;;;;;6253167;23;20012;-88
2022/12/09 08:10:49;;;;;;;39.28;12.88;;;;;;;;;;6254082;23;20385;-87
2022/12/09 08:13:17;;;;;;;34.88;13.43;;;;;;;;;;6241781;23;20027;-88
2022/12/09 08:15:45;;;;;;;36.97;13.18;;;;;;;;;;6250815;23;20023;-87
2022/12/09 08:18:13;;;;;;;35.08;13.10;;;;;;;;;;6225350;23;20500;-87
2022/12/09 08:20:41;;;;;;;33.70;13.65;;;;;;;;;;6257530;23;20074;-89
2022/12/09 08:23:14;;;;;;;25.33;11.82;;;;;;;;;;6255315;23;20031;-89
2022/12/09 08:25:43;;;;;;;28.88;11.35;;;;;;;;;;6262764;23;20020;-88
2022/12/09 08:28:11;;;;;;;27.70;11.77;;;;;;;;;;6235462;23;20095;-87
2022/12/09 08:30:39;;;;;;;31.00;11.88;;;;;;;;;;6256697;23;20393;-89
2022/12/09 08:33:33;;;;;;;24.05;10.00;;;;;;;;;;6216351;23;20024;-89
2022/12/09 08:36:02;;;;;;;29.13;10.30;;;;;;;;;;6248181;23;20016;-89
2022/12/09 08:38:31;;;;;;;25.23;10.23;;;;;;;;;;6254677;23;20023;-89
2022/12/09 08:41:13;;;;;;;29.65;10.93;;;;;;;;;;6254656;23;20016;-89
2022/12/09 08:43:42;;;;;;;30.23;9.65;;;;;;;;;;6227731;23;20016;-89
2022/12/09 08:46:11;;;;;;;27.10;10.32;;;;;;;;;;6231689;23;20041;-89
2022/12/09 08:48:41;;;;;;;27.35;9.80;;;;;;;;;;6255334;23;20008;-89
2022/12/09 08:51:14;;;;;;;25.35;10.32;;;;;;;;;;6228719;23;20017;-89
2022/12/09 08:53:41;;;;;;;28.23;10.48;;;;;;;;;;6217704;23;20093;-89
2022/12/09 08:56:15;;;;;;;21.92;9.18;;;;;;;;;;6217701;23;20590;-89
2022/12/09 08:58:49;;;;;;;27.50;9.43;;;;;;;;;;6228083;23;20444;-89
2022/12/09 09:01:19;;;;;;;26.92;11.15;;;;;;;;;;6228569;23;20015;-89
2022/12/09 09:03:47;;;;;;;27.70;11.55;;;;;;;;;;6217877;23;20384;-89
2022/12/09 09:06:16;;;;;;;23.08;9.00;;;;;;;;;;6255054;23;20020;-89
2022/12/09 09:08:45;;;;;;;24.08;8.75;;;;;;;;;;6228745;23;20016;-89
2022/12/09 09:11:19;;;;;;;23.40;9.68;;;;;;;;;;6259572;23;20023;-89
2022/12/09 09:13:50;;;;;;;28.63;11.13;;;;;;;;;;6233233;23;20020;-89
2022/12/09 09:16:22;;;;;;;25.65;9.65;;;;;;;;;;6259124;23;20016;-88
2022/12/09 09:19:18;;;;;;;29.27;9.70;;;;;;;;;;6238700;23;20019;-89
2022/12/09 09:21:47;;;;;;;25.88;9.13;;;;;;;;;;6230208;23;20476;-88
2022/12/09 09:24:22;;;;;;;23.70;9.40;;;;;;;;;;6224683;23;20035;-88
2022/12/09 09:26:51;;;;;;;20.90;9.23;;;;;;;;;;6252089;23;20020;-88
2022/12/09 09:29:25;;;;;;;22.60;9.60;;;;;;;;;;6253627;23;20043;-89
2022/12/09 09:31:53;;;;;;;24.80;10.05;;;;;;;;;;6204198;23;20452;-88
2022/12/09 09:34:27;;;;;;;26.45;9.85;;;;;;;;;;6220358;23;20023;-89
2022/12/09 09:36:55;;;;;;;24.02;9.43;;;;;;;;;;6230458;23;20391;-89
2022/12/09 09:39:29;;;;;;;25.77;9.52;;;;;;;;;;6217673;23;20444;-89
2022/12/09 09:42:01;;;;;;;24.80;10.00;;;;;;;;;;6258293;23;20036;-89
2022/12/09 09:44:47;;;;;;;23.55;8.95;;;;;;;;;;6258163;23;20012;-88
2022/12/09 09:47:25;;;;;;;20.25;8.50;;;;;;;;;;6230374;23;20047;-89
2022/12/09 09:50:03;;;;;;;25.73;9.35;;;;;;;;;;6230185;23;20017;-89
2022/12/09 09:52:33;;;;;;;19.75;8.73;;;;;;;;;;6230770;23;20016;-89
2022/12/09 09:55:38;;;;;;;20.88;9.02;;;;;;;;;;6232578;23;20062;-90
2022/12/09 09:58:40;;;;;;;23.27;8.77;;;;;;;;;;6214759;23;20090;-90
2022/12/09 10:01:16;;;;;;;23.85;8.80;;;;;;;;;;6254133;23;20020;-89
2022/12/09 10:04:24;;;;;;;18.27;8.38;;;;;;;;;;6216404;23;20031;-90
2022/12/09 10:07:40;;;;;;;20.73;8.70;;;;;;;;;;6253238;22;20004;-89
2022/12/09 10:10:11;;;;;;;23.25;8.43;;;;;;;;;;6227361;23;20022;-90
2022/12/09 10:13:08;;;;;;;23.27;8.80;;;;;;;;;;6232792;23;20040;-90
2022/12/09 10:16:31;;;;;;;26.75;9.38;;;;;;;;;;6204180;23;20023;-90
2022/12/09 10:19:22;;;;;;;21.90;8.43;;;;;;;;;;5977125;24;20265;-90
2022/12/09 10:21:53;;;;;;;22.00;7.85;;;;;;;;;;5987089;24;20687;-90
2022/12/09 10:24:34;;;;;;;19.35;8.40;;;;;;;;;;5954611;24;20028;-89
2022/12/09 10:27:06;;;;;;;25.67;9.32;;;;;;;;;;5977922;24;20020;-89
2022/12/09 10:29:47;;;;;;;21.13;9.23;;;;;;;;;;5964041;24;20068;-90
2022/12/09 10:35:28;;;;;;;20.70;7.45;;;;;;;;;;5986614;24;20034;-89
2022/12/09 10:38:12;;;;;;;19.73;8.20;;;;;;;;;;5987042;24;20023;-90
2022/12/09 10:43:33;;;;;;;18.95;8.00;;;;;;;;;;5986913;24;20050;-90
2022/12/09 10:44:31;;;;;;;20.48;8.13;;;;;;;;;;5986453;24;20035;-89
2022/12/09 10:47:17;;;;;;;24.73;8.48;;;;;;;;;;5985188;24;20555;-89
2022/12/09 10:49:52;;;;;;;23.20;9.18;;;;;;;;;;5977035;24;20032;-89
2022/12/09 10:52:23;;;;;;;20.35;8.45;;;;;;;;;;5985795;24;20457;-89
2022/12/09 10:54:57;;;;;;;21.15;8.10;;;;;;;;;;6008331;23;20026;-89
2022/12/09 10:57:31;;;;;;;20.48;8.35;;;;;;;;;;6227149;23;20020;-89
2022/12/09 11:00:19;;;;;;;18.80;7.85;;;;;;;;;;6226400;23;20043;-89
2022/12/09 11:03:28;;;;;;;20.08;7.72;;;;;;;;;;6230607;23;20046;-89
2022/12/09 11:06:02;;;;;;;17.70;7.30;;;;;;;;;;6219374;23;20479;-89
2022/12/09 11:08:31;;;;;;;18.35;7.25;;;;;;;;;;6252328;23;20024;-89
2022/12/09 11:10:59;;;;;;;17.30;7.05;;;;;;;;;;6253167;23;20522;-89
2022/12/09 11:13:42;;;;;;;19.65;7.65;;;;;;;;;;6190666;23;20031;-89
2022/12/09 11:16:15;;;;;;;16.40;7.53;;;;;;;;;;6227406;23;20012;-89
2022/12/09 11:18:46;;;;;;;18.85;8.18;;;;;;;;;;6252037;23;20018;-89
2022/12/09 11:21:35;;;;;;;17.23;8.00;;;;;;;;;;6226366;23;20020;-88
2022/12/09 11:24:03;;;;;;;18.38;7.57;;;;;;;;;;6225634;23;20016;-89
2022/12/09 11:26:36;;;;;;;19.15;8.00;;;;;;;;;;6226617;23;20808;-89
2022/12/09 11:29:17;;;;;;;18.05;7.18;;;;;;;;;;6252394;23;20016;-89
2022/12/09 11:31:47;;;;;;;18.38;7.57;;;;;;;;;;6250784;23;20020;-89
2022/12/09 11:34:24;;;;;;;18.75;8.15;;;;;;;;;;6188896;23;20020;-89
2022/12/09 11:36:57;;;;;;;25.02;7.85;;;;;;;;;;6214620;23;20058;-89
2022/12/09 11:39:51;;;;;;;16.75;6.93;;;;;;;;;;6215835;23;20607;-90
2022/12/09 11:42:21;;;;;;;20.88;7.47;;;;;;;;;;6252286;23;20020;-89
2022/12/09 11:44:57;;;;;;;21.23;7.38;;;;;;;;;;6190920;23;20344;-87
2022/12/09 11:47:50;;;;;;;18.30;7.07;;;;;;;;;;6217341;23;20016;-90
2022/12/09 11:50:41;;;;;;;16.35;7.18;;;;;;;;;;6227638;23;20014;-89
2022/12/09 11:53:12;;;;;;;19.35;8.00;;;;;;;;;;6224689;23;20471;-89
2022/12/09 11:56:10;;;;;;;18.52;7.22;;;;;;;;;;6251442;23;20020;-89
2022/12/09 11:58:46;;;;;;;18.73;7.78;;;;;;;;;;6252523;23;20016;-89
2022/12/09 12:01:23;;;;;;;16.60;7.80;;;;;;;;;;6253636;23;20026;-91
2022/12/09 12:04:00;;;;;;;19.23;7.85;;;;;;;;;;6226481;23;20028;-90
2022/12/09 12:07:04;;;;;;;19.45;7.43;;;;;;;;;;6242206;23;20016;-89
2022/12/09 12:09:38;;;;;;;20.45;8.38;;;;;;;;;;6239974;23;20023;-90
2022/12/09 12:12:35;;;;;;;22.17;8.55;;;;;;;;;;6202038;23;20037;-90
2022/12/09 12:15:13;;;;;;;15.90;7.68;;;;;;;;;;6201874;23;20035;-90
2022/12/09 12:17:45;;;;;;;20.83;7.00;;;;;;;;;;6219959;23;20081;-90
2022/12/09 12:20:13;;;;;;;20.42;7.47;;;;;;;;;;6234608;23;20046;-91
2022/12/09 12:23:05;;;;;;;22.20;7.40;;;;;;;;;;6237246;23;20079;-87
2022/12/09 12:25:48;;;;;;;22.20;8.75;;;;;;;;;;6236181;23;20020;-90
2022/12/09 12:28:45;;;;;;;19.90;7.82;;;;;;;;;;6172546;23;20042;-91
2022/12/09 12:31:44;;;;;;;20.15;8.20;;;;;;;;;;6265094;23;20039;-92
2022/12/09 12:34:41;;;;;;;20.25;8.60;;;;;;;;;;6180543;23;20028;-91
2022/12/09 12:37:24;;;;;;;18.52;7.63;;;;;;;;;;6220102;23;20055;-91
2022/12/09 12:40:22;;;;;;;21.45;8.27;;;;;;;;;;6206942;23;20726;-90
2022/12/09 12:46:37;;;;;;;;;;;;;;;;;;6260050;23;20417;-90
2022/12/09 12:49:26;;;;;;;23.65;7.70;;;;;;;;;;6257399;23;19919;-90
2022/12/09 12:52:06;;;;;;;19.45;8.70;;;;;;;;;;6196682;23;20062;-89
2022/12/09 12:55:17;;;;;;;20.67;8.68;;;;;;;;;;6260954;23;20023;-90
2022/12/09 12:58:12;;;;;;;21.27;8.25;;;;;;;;;;6237633;23;20012;-89
2022/12/09 13:01:01;;;;;;;19.55;8.43;;;;;;;;;;6176099;23;20024;-90
2022/12/09 13:03:57;;;;;;;17.80;9.32;;;;;;;;;;6233090;23;20012;-90
2022/12/09 13:06:44;;;;;;;21.42;7.78;;;;;;;;;;6239021;22;20016;-89
2022/12/09 13:09:44;;;;;;;25.83;9.02;;;;;;;;;;6229768;23;20022;-90
2022/12/09 13:12:52;;;;;;;20.15;7.60;;;;;;;;;;6257988;23;20016;-89
2022/12/09 13:15:20;;;;;;;20.10;7.93;;;;;;;;;;6256644;23;20020;-90
2022/12/09 13:17:48;;;;;;;27.50;9.57;;;;;;;;;;6194419;23;20104;-90
2022/12/09 13:20:39;;;;;;;23.48;9.05;;;;;;;;;;6241536;23;20083;-91
2022/12/09 13:23:31;;;;;;;20.73;8.60;;;;;;;;;;6258994;23;20023;-90
2022/12/09 13:26:25;;;;;;;22.73;7.88;;;;;;;;;;6256876;23;20104;-90
2022/12/09 13:29:05;;;;;;;24.45;9.30;;;;;;;;;;6232913;23;20082;-90
2022/12/09 13:31:35;;;;;;;18.90;8.02;;;;;;;;;;6193765;23;20024;-90
2022/12/09 13:34:23;;;;;;;22.92;8.43;;;;;;;;;;6229128;23;20016;-89
2022/12/09 13:36:51;;;;;;;20.08;8.00;;;;;;;;;;6232201;23;20020;-90
2022/12/09 13:39:37;;;;;;;22.63;8.65;;;;;;;;;;6177695;23;20016;-90
2022/12/09 13:45:28;;;;;;;21.48;8.13;;;;;;;;;;6225597;23;20360;-90
2022/12/09 13:48:03;;;;;;;19.90;8.20;;;;;;;;;;6209481;23;20416;-90
2022/12/09 13:50:37;;;;;;;20.25;8.35;;;;;;;;;;6233547;23;20012;-89
2022/12/09 13:53:13;;;;;;;21.67;8.88;;;;;;;;;;6255805;23;20027;-90
2022/12/09 13:56:03;;;;;;;20.77;7.82;;;;;;;;;;6260461;23;20024;-90
2022/12/09 13:59:01;;;;;;;20.75;8.80;;;;;;;;;;6199681;23;20027;-90
2022/12/09 14:01:55;;;;;;;21.83;8.57;;;;;;;;;;6257357;23;20019;-90
2022/12/09 14:04:30;;;;;;;24.35;8.68;;;;;;;;;;6076275;23;20045;-91
2022/12/09 14:07:23;;;;;;;28.40;10.45;;;;;;;;;;6087823;23;20029;-90
2022/12/09 14:09:54;;;;;;;32.28;9.98;;;;;;;;;;6095078;23;20026;-89
2022/12/09 14:12:56;;;;;;;20.55;8.35;;;;;;;;;;6067838;23;20474;-89
2022/12/09 14:15:25;;;;;;;23.10;8.70;;;;;;;;;;6102927;23;20026;-90
2022/12/09 14:18:03;;;;;;;22.10;8.63;;;;;;;;;;6099239;23;20033;-90
2022/12/09 14:20:38;;;;;;;23.15;8.50;;;;;;;;;;6100334;23;20019;-90
2022/12/09 14:23:11;;;;;;;20.75;9.68;;;;;;;;;;6100709;23;20026;-90
2022/12/09 14:25:57;;;;;;;16.38;7.40;;;;;;;;;;6067777;23;20761;-91
2022/12/09 14:28:40;;;;;;;21.25;8.25;;;;;;;;;;6101050;23;20179;-90
2022/12/09 14:31:44;;;;;;;20.88;8.07;;;;;;;;;;6107362;23;20034;-89
2022/12/09 14:34:26;;;;;;;21.38;9.18;;;;;;;;;;6101919;23;20029;-90
2022/12/09 14:37:04;;;;;;;19.15;9.20;;;;;;;;;;6102931;23;20026;-89
2022/12/09 14:39:45;;;;;;;21.70;8.55;;;;;;;;;;6084430;23;20053;-90
2022/12/09 14:43:00;;;;;;;23.35;8.80;;;;;;;;;;6241250;23;20150;-89
2022/12/09 14:45:45;;;;;;;21.95;7.72;;;;;;;;;;6224233;23;20071;-89
2022/12/09 14:48:18;;;;;;;21.52;8.45;;;;;;;;;;6263220;23;20016;-89
2022/12/09 14:50:47;;;;;;;22.05;8.60;;;;;;;;;;6175155;23;20016;-88
2022/12/09 14:53:22;;;;;;;16.83;8.40;;;;;;;;;;6233411;23;20420;-89
2022/12/09 14:55:51;;;;;;;23.73;9.25;;;;;;;;;;6232166;23;20012;-89
2022/12/09 14:58:55;;;;;;;19.45;8.05;;;;;;;;;;6258875;23;20497;-89
2022/12/09 15:01:23;;;;;;;23.70;9.77;;;;;;;;;;6207247;23;20012;-88
2022/12/09 15:03:57;;;;;;;20.60;8.07;;;;;;;;;;6207385;23;20012;-89
2022/12/09 15:06:25;;;;;;;24.45;8.55;;;;;;;;;;6219737;23;20130;-89
2022/12/09 15:08:57;;;;;;;27.13;9.00;;;;;;;;;;6234271;23;20348;-89
2022/12/09 15:11:28;;;;;;;24.25;9.15;;;;;;;;;;6196020;23;20044;-89
2022/12/09 15:14:27;;;;;;;22.33;9.55;;;;;;;;;;6230083;23;20639;-89
2022/12/09 15:16:56;;;;;;;28.23;10.82;;;;;;;;;;6254533;23;20463;-88
2022/12/09 15:19:49;;;;;;;27.27;11.18;;;;;;;;;;6229488;23;20012;-89
2022/12/09 15:22:33;;;;;;;30.75;12.07;;;;;;;;;;6199539;23;20020;-89
2022/12/09 15:25:01;;;;;;;32.00;11.90;;;;;;;;;;6224383;23;20074;-88
2022/12/09 15:27:34;;;;;;;24.15;9.80;;;;;;;;;;6260872;23;20023;-89
2022/12/09 15:30:22;;;;;;;22.00;9.82;;;;;;;;;;6235262;23;20012;-88
2022/12/09 15:32:49;;;;;;;29.13;12.20;;;;;;;;;;6198244;23;20024;-88
2022/12/09 15:35:22;;;;;;;26.00;11.25;;;;;;;;;;6232760;23;20026;-88
2022/12/09 15:37:54;;;;;;;23.65;11.73;;;;;;;;;;6219419;23;20028;-88
2022/12/09 15:40:21;;;;;;;20.50;9.43;;;;;;;;;;6255188;23;20568;-89
2022/12/09 15:42:52;;;;;;;22.65;9.38;;;;;;;;;;6217729;23;20074;-88
2022/12/09 15:45:25;;;;;;;20.10;8.48;;;;;;;;;;6242328;23;20099;-88